createdAt,value
2022-10-31T08:46:37.096Z,91.40
2022-10-31T08:49:05.031Z,91.30
2022-10-31T08:51:32.479Z,91.00
2022-10-31T08:54:00.051Z,90.90
2022-10-31T08:56:37.554Z,90.80
2022-10-31T08:59:14.867Z,90.60
2022-10-31T09:05:44.524Z,90.20
2022-10-31T09:08:16.735Z,89.70
2022-10-31T09:10:46.749Z,89.60
2022-10-31T09:13:18.859Z,89.50
2022-10-31T09:15:48.214Z,89.50
2022-10-31T09:18:23.023Z,89.60
2022-10-31T09:21:01.482Z,89.60
2022-10-31T09:23:31.571Z,89.30
2022-10-31T09:26:01.270Z,89.40
2022-10-31T09:28:33.256Z,89.10
2022-10-31T09:31:19.138Z,88.80
2022-10-31T09:34:06.426Z,88.50
2022-10-31T09:36:37.095Z,88.40
2022-10-31T09:39:08.409Z,88.30
2022-10-31T09:41:47.626Z,88.20
2022-10-31T09:44:15.038Z,88.20
2022-10-31T09:46:46.287Z,88.30
2022-10-31T09:49:32.726Z,88.30
2022-10-31T09:52:03.276Z,88.20
2022-10-31T09:54:50.355Z,88.10
2022-10-31T09:57:24.046Z,88.10
2022-10-31T09:59:51.983Z,87.90
2022-10-31T10:02:25.774Z,87.80
2022-10-31T10:04:54.001Z,87.70
2022-10-31T10:07:31.553Z,87.40
2022-10-31T10:10:20.781Z,87.20
2022-10-31T10:13:14.021Z,87.30
2022-10-31T10:15:41.527Z,87.30
2022-10-31T10:18:27.330Z,87.30
2022-10-31T10:20:58.117Z,87.30
2022-10-31T10:23:31.809Z,87.30
2022-10-31T10:26:07.409Z,87.20
2022-10-31T10:28:39.892Z,87.20
2022-10-31T10:31:17.743Z,87.30
2022-10-31T10:34:05.407Z,87.30
2022-10-31T10:36:37.694Z,87.20
2022-10-31T10:39:25.158Z,87.10
2022-10-31T10:42:12.204Z,86.90
2022-10-31T10:44:59.389Z,86.60
2022-10-31T10:47:44.178Z,86.40
2022-10-31T10:50:17.174Z,85.90
2022-10-31T10:52:50.819Z,85.80
2022-10-31T10:55:29.602Z,85.80
2022-10-31T10:57:59.875Z,85.50
2022-10-31T11:00:33.018Z,85.40
2022-10-31T11:03:00.849Z,85.10
2022-10-31T11:05:35.362Z,85.10
2022-10-31T11:08:03.135Z,84.50
2022-10-31T11:10:30.692Z,84.00
2022-10-31T11:13:01.387Z,83.50
2022-10-31T11:15:30.213Z,83.20
2022-10-31T11:17:58.572Z,83.20
2022-10-31T11:20:26.135Z,83.50
2022-10-31T11:23:02.115Z,83.60
2022-10-31T11:25:29.688Z,83.60
2022-10-31T11:28:01.195Z,83.80
2022-10-31T11:30:28.989Z,83.60
2022-10-31T11:32:57.208Z,83.70
2022-10-31T11:35:25.228Z,83.70
2022-10-31T11:37:54.521Z,83.70
2022-10-31T11:40:23.678Z,83.80
2022-10-31T11:42:52.596Z,83.90
2022-10-31T11:45:34.771Z,84.00
2022-10-31T11:48:03.643Z,84.00
2022-10-31T11:50:34.319Z,84.00
2022-10-31T11:53:01.996Z,84.10
2022-10-31T11:55:34.344Z,84.20
2022-10-31T11:58:02.085Z,84.30
2022-10-31T12:00:30.499Z,84.30
2022-10-31T12:03:17.007Z,84.40
2022-10-31T12:05:46.171Z,84.40
2022-10-31T12:08:14.062Z,84.60
2022-10-31T12:11:00.072Z,84.60
2022-10-31T12:13:35.551Z,84.60
2022-10-31T12:16:23.354Z,84.20
2022-10-31T12:19:03.069Z,84.00
2022-10-31T12:21:50.694Z,84.10
2022-10-31T12:24:42.011Z,83.80
2022-10-31T12:27:15.576Z,83.40
2022-10-31T12:30:01.866Z,83.30
2022-10-31T12:32:47.787Z,83.40
2022-10-31T12:35:22.532Z,83.30
2022-10-31T12:37:59.432Z,83.40
2022-10-31T12:40:42.433Z,83.40
2022-10-31T12:43:17.351Z,83.40
2022-10-31T12:45:58.013Z,83.30
2022-10-31T12:48:36.367Z,83.30
2022-10-31T12:51:09.823Z,83.40
2022-10-31T12:53:37.223Z,83.50
2022-10-31T12:56:13.864Z,83.60
2022-10-31T12:58:45.056Z,83.60
2022-10-31T13:01:15.625Z,83.60
2022-10-31T13:03:58.433Z,83.50
2022-10-31T13:06:31.121Z,83.40
2022-10-31T13:09:03.422Z,83.30
2022-10-31T13:11:36.692Z,83.20
2022-10-31T13:14:09.105Z,83.20
2022-10-31T13:16:39.582Z,83.30
2022-10-31T13:19:14.729Z,83.40
2022-10-31T13:22:00.980Z,83.50
2022-10-31T13:24:33.179Z,83.60
2022-10-31T13:27:02.246Z,83.70
2022-10-31T13:29:45.602Z,83.50
2022-10-31T13:32:13.004Z,83.60
2022-10-31T13:34:41.633Z,83.70
2022-10-31T13:37:22.281Z,83.50
2022-10-31T13:40:08.425Z,83.50
2022-10-31T13:42:44.770Z,83.60
2022-10-31T13:45:16.780Z,83.60
2022-10-31T13:47:44.441Z,83.80
2022-10-31T13:50:21.136Z,83.70
2022-10-31T13:52:48.873Z,83.90
2022-10-31T13:55:35.010Z,84.00
2022-10-31T13:58:04.923Z,84.10
2022-10-31T14:00:36.121Z,84.00
2022-10-31T14:03:03.745Z,84.00
2022-10-31T14:05:33.330Z,83.80
2022-10-31T14:08:03.989Z,83.80
2022-10-31T14:10:39.256Z,83.80
2022-10-31T14:13:08.385Z,83.70
2022-10-31T14:15:36.411Z,83.70
2022-10-31T14:18:07.787Z,83.50
2022-10-31T14:20:38.229Z,83.60
2022-10-31T14:23:24.447Z,83.60
2022-10-31T14:25:51.844Z,83.60
2022-10-31T14:28:31.919Z,83.70
2022-10-31T14:31:00.145Z,83.80
2022-10-31T14:33:31.571Z,83.80
2022-10-31T14:36:05.220Z,83.90
2022-10-31T14:38:37.587Z,83.80
2022-10-31T14:41:05.185Z,83.90
2022-10-31T14:43:40.934Z,83.80
2022-10-31T14:46:33.951Z,83.70
2022-10-31T14:49:20.267Z,83.40
2022-10-31T14:51:48.687Z,83.30
2022-10-31T14:54:18.540Z,83.30
2022-10-31T14:56:56.676Z,83.40
2022-10-31T14:59:28.368Z,83.50
2022-10-31T15:02:01.042Z,83.50
2022-10-31T15:04:30.117Z,83.50
2022-10-31T15:07:06.899Z,83.60
2022-10-31T15:09:35.371Z,83.60
2022-10-31T15:12:22.678Z,83.70
2022-10-31T15:14:50.245Z,83.80
2022-10-31T15:17:17.663Z,83.90
2022-10-31T15:19:45.567Z,83.90
2022-10-31T15:22:17.219Z,84.00
2022-10-31T15:24:44.987Z,84.10
2022-10-31T15:27:16.301Z,84.10
2022-10-31T15:29:56.577Z,84.10
2022-10-31T15:32:25.513Z,84.20
2022-10-31T15:34:53.699Z,84.20
2022-10-31T15:37:28.935Z,84.10
2022-10-31T15:39:56.365Z,84.20
2022-10-31T15:42:23.956Z,84.10
2022-10-31T15:45:06.610Z,84.10
2022-10-31T15:47:34.260Z,84.00
2022-10-31T15:50:02.352Z,83.90
2022-10-31T15:52:32.385Z,83.70
2022-10-31T15:55:02.087Z,83.70
2022-10-31T15:57:29.741Z,83.70
2022-10-31T15:59:57.609Z,83.80
2022-10-31T16:02:27.058Z,83.70
2022-10-31T16:04:56.527Z,83.80
2022-10-31T16:07:24.384Z,83.80
2022-10-31T16:09:55.000Z,84.00
2022-10-31T16:12:23.210Z,84.20
2022-10-31T16:14:54.872Z,84.30
2022-10-31T16:17:24.006Z,84.50
2022-10-31T16:19:53.596Z,84.60
2022-10-31T16:22:22.605Z,84.80
2022-10-31T16:24:49.908Z,84.90
2022-10-31T16:27:24.301Z,85.00
2022-10-31T16:29:51.721Z,85.20
2022-10-31T16:32:31.432Z,85.30
2022-10-31T16:35:03.066Z,85.20
2022-10-31T16:37:30.534Z,85.10
2022-10-31T16:39:57.869Z,85.00
2022-10-31T16:42:25.709Z,84.80
2022-10-31T16:44:53.272Z,84.60
2022-10-31T16:47:22.213Z,84.40
2022-10-31T16:49:52.115Z,84.40
2022-10-31T16:52:19.675Z,84.30
2022-10-31T16:54:47.013Z,84.20
2022-10-31T16:57:19.080Z,84.20
2022-10-31T16:59:49.379Z,84.10
2022-10-31T17:02:17.563Z,84.10
2022-10-31T17:04:45.041Z,84.20
2022-10-31T17:07:12.421Z,84.30
2022-10-31T17:09:40.080Z,84.30
2022-10-31T17:12:12.238Z,84.40
2022-10-31T17:14:39.832Z,84.40
2022-10-31T17:17:08.512Z,84.50
2022-10-31T17:19:35.883Z,84.60
2022-10-31T17:22:03.329Z,84.70
2022-10-31T17:24:30.878Z,84.80
2022-10-31T17:26:58.235Z,84.80
2022-10-31T17:29:25.559Z,85.00
2022-10-31T17:31:52.931Z,85.10
2022-10-31T17:34:20.423Z,85.30
2022-10-31T17:37:08.162Z,85.60
